Time;durP1;ratioP1;P1;durP2;ratioP2;P2;SDS_P1;SDS_P2;PMS_P1;PMS_P2;Temp;Humidity;BMP_temperature;BMP_pressure;BME280_temperature;BME280_humidity;BME280_pressure;Samples;Min_cycle;Max_cycle;Signal;HPM_P1;HPM_P2
2024/03/10 00:01:37;;;;;;;2.27;1.10;;;;;;;;;;4983643;28;86769;-45
2024/03/10 00:04:02;;;;;;;1.37;0.77;;;;;;;;;;4983330;28;86863;-45
2024/03/10 00:06:27;;;;;;;2.00;1.30;;;;;;;;;;4986571;28;86959;-45
2024/03/10 00:08:53;;;;;;;3.77;1.03;;;;;;;;;;4982013;28;87625;-44
2024/03/10 00:11:18;;;;;;;1.10;0.70;;;;;;;;;;4982397;28;87473;-44
2024/03/10 00:13:43;;;;;;;3.07;1.10;;;;;;;;;;4982192;28;87900;-46
2024/03/10 00:16:11;;;;;;;2.23;1.03;;;;;;;;;;4983182;28;86599;-46
2024/03/10 00:18:37;;;;;;;1.80;0.77;;;;;;;;;;4983685;28;86774;-44
2024/03/10 00:21:03;;;;;;;2.10;1.17;;;;;;;;;;4984321;28;86942;-47
2024/03/10 00:23:28;;;;;;;1.13;0.77;;;;;;;;;;4984151;28;86674;-46
2024/03/10 00:25:53;;;;;;;1.73;0.80;;;;;;;;;;4984777;28;87062;-45
2024/03/10 00:28:20;;;;;;;1.17;0.73;;;;;;;;;;4986651;28;87069;-45
2024/03/10 00:30:47;;;;;;;2.03;0.73;;;;;;;;;;4984606;28;86222;-45
2024/03/10 00:33:12;;;;;;;2.00;0.90;;;;;;;;;;4982708;28;86909;-45
2024/03/10 00:35:38;;;;;;;2.83;1.03;;;;;;;;;;4983352;28;86766;-45
2024/03/10 00:38:03;;;;;;;3.47;0.90;;;;;;;;;;4981882;28;87764;-45
2024/03/10 00:40:28;;;;;;;1.77;0.83;;;;;;;;;;4983579;28;87218;-45
2024/03/10 00:42:53;;;;;;;2.17;0.60;;;;;;;;;;4983173;28;86897;-45
2024/03/10 00:45:19;;;;;;;1.30;0.80;;;;;;;;;;4981741;28;86892;-45
2024/03/10 00:47:45;;;;;;;4.30;0.90;;;;;;;;;;4984045;28;86623;-45
2024/03/10 00:50:10;;;;;;;1.63;0.90;;;;;;;;;;4986647;28;87452;-45
2024/03/10 00:52:36;;;;;;;1.73;0.90;;;;;;;;;;4983788;28;87846;-48
2024/03/10 00:55:01;;;;;;;1.97;1.10;;;;;;;;;;4984232;28;86180;-45
2024/03/10 00:57:26;;;;;;;1.53;0.97;;;;;;;;;;4983238;28;86865;-46
2024/03/10 00:59:52;;;;;;;0.90;0.70;;;;;;;;;;4982760;28;87148;-46
2024/03/10 01:02:17;;;;;;;0.70;0.70;;;;;;;;;;4981938;28;88322;-46
2024/03/10 01:04:43;;;;;;;1.10;0.65;;;;;;;;;;4983610;28;86915;-47
2024/03/10 01:07:08;;;;;;;0.93;0.88;;;;;;;;;;4984951;28;86900;-47
2024/03/10 01:09:34;;;;;;;2.73;0.70;;;;;;;;;;4985066;28;86749;-45
2024/03/10 01:11:59;;;;;;;3.00;1.00;;;;;;;;;;4988676;28;87010;-46
2024/03/10 01:14:24;;;;;;;1.10;0.70;;;;;;;;;;4985979;28;86801;-47
2024/03/10 01:16:49;;;;;;;2.03;1.00;;;;;;;;;;4985671;28;86796;-44
2024/03/10 01:19:15;;;;;;;1.70;0.87;;;;;;;;;;4986802;28;87564;-44
2024/03/10 01:21:43;;;;;;;1.23;0.60;;;;;;;;;;4985554;28;87080;-46
2024/03/10 01:24:08;;;;;;;0.80;0.60;;;;;;;;;;4985754;28;86892;-45
2024/03/10 01:26:34;;;;;;;1.10;0.70;;;;;;;;;;4985283;28;87805;-45
2024/03/10 01:28:59;;;;;;;1.70;0.77;;;;;;;;;;4986955;28;86763;-46
2024/03/10 01:31:26;;;;;;;1.73;0.60;;;;;;;;;;4985785;28;86829;-44
2024/03/10 01:33:51;;;;;;;0.80;0.50;;;;;;;;;;4988111;28;90089;-45
2024/03/10 01:36:16;;;;;;;0.77;0.70;;;;;;;;;;4986954;28;87055;-47
2024/03/10 01:38:41;;;;;;;1.00;0.50;;;;;;;;;;4986469;28;87242;-47
2024/03/10 01:41:07;;;;;;;1.30;0.90;;;;;;;;;;4984621;28;88770;-45
2024/03/10 01:43:33;;;;;;;1.10;0.73;;;;;;;;;;4986694;28;86225;-46
2024/03/10 01:46:06;;;;;;;1.30;0.90;;;;;;;;;;4986410;28;86812;-46
2024/03/10 01:48:36;;;;;;;1.65;0.90;;;;;;;;;;4986265;28;87532;-44
2024/03/10 01:51:01;;;;;;;1.42;1.00;;;;;;;;;;4985026;28;87982;-44
2024/03/10 01:53:30;;;;;;;0.93;0.82;;;;;;;;;;4987920;28;86865;-46
2024/03/10 01:55:56;;;;;;;4.10;0.90;;;;;;;;;;4985074;28;87405;-45
2024/03/10 01:58:21;;;;;;;2.20;0.90;;;;;;;;;;4985205;28;87289;-46
2024/03/10 02:00:47;;;;;;;2.25;0.68;;;;;;;;;;4984137;28;87465;-49
2024/03/10 02:03:13;;;;;;;1.02;0.75;;;;;;;;;;4985086;28;86860;-45
2024/03/10 02:05:38;;;;;;;1.48;0.95;;;;;;;;;;4984116;28;86859;-45
2024/03/10 02:08:05;;;;;;;1.67;0.80;;;;;;;;;;4983562;28;86286;-45
2024/03/10 02:10:30;;;;;;;2.43;1.17;;;;;;;;;;4985206;28;86788;-44
2024/03/10 02:12:56;;;;;;;1.50;0.97;;;;;;;;;;4985477;28;86817;-44
2024/03/10 02:15:22;;;;;;;2.80;0.83;;;;;;;;;;4986972;28;88470;-46
2024/03/10 02:17:48;;;;;;;1.38;1.02;;;;;;;;;;4983996;28;87035;-47
2024/03/10 02:20:20;;;;;;;2.60;1.10;;;;;;;;;;4985265;28;87488;-45
2024/03/10 02:22:46;;;;;;;0.85;0.68;;;;;;;;;;4985415;28;86787;-45
2024/03/10 02:25:12;;;;;;;1.13;0.77;;;;;;;;;;4985126;28;86983;-45
2024/03/10 02:27:44;;;;;;;3.70;1.10;;;;;;;;;;4986390;28;86773;-46
2024/03/10 02:30:56;;;;;;;2.10;1.00;;;;;;;;;;4986059;28;86782;-48
2024/03/10 02:49:21;;;;;;;1.10;1.00;;;;;;;;;;4985288;28;87111;-46
2024/03/10 02:51:47;;;;;;;1.20;0.67;;;;;;;;;;4984139;28;86817;-46
2024/03/10 02:54:12;;;;;;;4.03;1.53;;;;;;;;;;4984936;28;87157;-46
2024/03/10 02:56:37;;;;;;;5.03;1.20;;;;;;;;;;4983556;28;89110;-45
2024/03/10 02:59:03;;;;;;;1.40;0.87;;;;;;;;;;4986098;28;88292;-45
2024/03/10 03:01:28;;;;;;;1.02;0.57;;;;;;;;;;4987691;28;86826;-44
2024/03/10 03:03:53;;;;;;;1.60;0.90;;;;;;;;;;4983950;28;86964;-44
2024/03/10 03:06:19;;;;;;;2.87;0.77;;;;;;;;;;4984659;28;88072;-44
2024/03/10 03:08:44;;;;;;;0.67;0.57;;;;;;;;;;4984787;28;86909;-46
2024/03/10 03:11:09;;;;;;;1.40;0.90;;;;;;;;;;4985578;28;86905;-45
2024/03/10 03:13:35;;;;;;;1.15;0.88;;;;;;;;;;4985423;28;86871;-46
2024/03/10 03:16:01;;;;;;;1.23;0.80;;;;;;;;;;4984447;28;87573;-45
2024/03/10 03:18:26;;;;;;;1.27;0.80;;;;;;;;;;4985088;28;86833;-46
2024/03/10 03:20:51;;;;;;;0.97;0.77;;;;;;;;;;4984483;28;86865;-47
2024/03/10 03:23:16;;;;;;;1.43;0.80;;;;;;;;;;4987103;28;86094;-45
2024/03/10 03:25:41;;;;;;;2.80;1.20;;;;;;;;;;4984204;28;87471;-45
2024/03/10 03:28:07;;;;;;;1.87;0.80;;;;;;;;;;4984013;28;87509;-44
2024/03/10 03:30:32;;;;;;;3.30;1.13;;;;;;;;;;4983588;28;87869;-45
2024/03/10 03:32:57;;;;;;;4.13;0.93;;;;;;;;;;4985584;28;86960;-45
2024/03/10 03:35:23;;;;;;;0.70;0.70;;;;;;;;;;4983492;28;88603;-45
2024/03/10 03:37:48;;;;;;;1.80;1.20;;;;;;;;;;4984614;28;86925;-44
2024/03/10 03:40:14;;;;;;;3.70;1.20;;;;;;;;;;4983847;28;86864;-46
2024/03/10 03:42:39;;;;;;;1.00;0.75;;;;;;;;;;4983297;28;86902;-46
2024/03/10 03:45:05;;;;;;;1.20;0.80;;;;;;;;;;4986373;28;86717;-45
2024/03/10 03:47:30;;;;;;;2.50;0.67;;;;;;;;;;4984281;28;86054;-46
2024/03/10 03:49:56;;;;;;;3.33;0.93;;;;;;;;;;4983905;28;87112;-44
2024/03/10 03:52:21;;;;;;;3.00;0.70;;;;;;;;;;4984459;28;87053;-45
2024/03/10 03:54:46;;;;;;;3.07;1.17;;;;;;;;;;4981261;28;88439;-44
2024/03/10 03:57:11;;;;;;;1.17;0.70;;;;;;;;;;4984147;28;86781;-45
2024/03/10 03:59:40;;;;;;;2.77;0.70;;;;;;;;;;4984092;28;86777;-45
2024/03/10 04:02:07;;;;;;;1.58;0.80;;;;;;;;;;4983269;28;87444;-45
2024/03/10 04:04:32;;;;;;;1.00;0.63;;;;;;;;;;4987984;28;86924;-45
2024/03/10 04:06:57;;;;;;;1.40;0.87;;;;;;;;;;4984219;28;86898;-45
2024/03/10 04:09:23;;;;;;;1.43;0.80;;;;;;;;;;4984250;28;87001;-45
2024/03/10 04:11:49;;;;;;;1.20;0.50;;;;;;;;;;4984627;28;87174;-45
2024/03/10 04:14:15;;;;;;;0.50;0.50;;;;;;;;;;4984392;28;86951;-45
2024/03/10 04:16:42;;;;;;;2.28;0.73;;;;;;;;;;4983920;28;86792;-46
2024/03/10 04:19:08;;;;;;;0.98;0.50;;;;;;;;;;4983861;28;88374;-45
2024/03/10 04:21:33;;;;;;;1.83;0.82;;;;;;;;;;4983479;28;87410;-46
2024/03/10 04:23:59;;;;;;;1.20;0.67;;;;;;;;;;4984388;28;87599;-45
2024/03/10 04:26:24;;;;;;;1.85;0.57;;;;;;;;;;4987635;28;87371;-45
2024/03/10 04:28:50;;;;;;;0.93;0.70;;;;;;;;;;4982306;28;86936;-46
2024/03/10 04:31:16;;;;;;;0.60;0.60;;;;;;;;;;4984470;28;87189;-46
2024/03/10 04:33:42;;;;;;;1.40;0.60;;;;;;;;;;4984235;28;87451;-45
2024/03/10 04:36:07;;;;;;;1.80;1.00;;;;;;;;;;4984183;28;86885;-44
2024/03/10 04:38:32;;;;;;;1.50;1.02;;;;;;;;;;4983892;28;86754;-46
2024/03/10 04:40:58;;;;;;;1.38;0.82;;;;;;;;;;4985595;28;86838;-46
2024/03/10 04:43:23;;;;;;;2.00;0.60;;;;;;;;;;4987049;28;87838;-46
2024/03/10 04:45:48;;;;;;;1.40;0.77;;;;;;;;;;4988946;28;86975;-45
2024/03/10 04:48:15;;;;;;;2.13;0.80;;;;;;;;;;4991188;28;86904;-45
2024/03/10 04:50:41;;;;;;;1.00;0.70;;;;;;;;;;4987845;28;87384;-44
2024/03/10 04:53:06;;;;;;;3.30;0.97;;;;;;;;;;4988415;28;86533;-45
2024/03/10 04:55:31;;;;;;;2.40;0.90;;;;;;;;;;4988760;28;86915;-45
2024/03/10 04:57:57;;;;;;;0.90;0.80;;;;;;;;;;4988396;28;87091;-44
2024/03/10 05:00:22;;;;;;;2.20;1.03;;;;;;;;;;4987969;28;86542;-44
2024/03/10 05:02:47;;;;;;;1.30;0.60;;;;;;;;;;4988639;28;86813;-49
2024/03/10 05:05:13;;;;;;;1.93;1.00;;;;;;;;;;4988356;28;87211;-45
2024/03/10 05:07:39;;;;;;;1.00;0.67;;;;;;;;;;4986087;28;88313;-47
2024/03/10 05:10:05;;;;;;;1.65;0.50;;;;;;;;;;4990251;28;86771;-45
2024/03/10 05:12:30;;;;;;;1.50;0.88;;;;;;;;;;4987214;28;86736;-47
2024/03/10 05:14:55;;;;;;;1.63;0.63;;;;;;;;;;4988233;28;86869;-45
2024/03/10 05:17:21;;;;;;;1.35;0.75;;;;;;;;;;4986857;28;87101;-46
2024/03/10 05:19:46;;;;;;;2.10;0.65;;;;;;;;;;4987652;28;87366;-46
2024/03/10 05:22:12;;;;;;;1.63;0.80;;;;;;;;;;4986049;28;86850;-46
2024/03/10 05:24:38;;;;;;;0.70;0.57;;;;;;;;;;4987473;28;86816;-44
2024/03/10 05:27:03;;;;;;;0.55;0.55;;;;;;;;;;4987124;28;86824;-46
2024/03/10 05:29:29;;;;;;;1.90;0.80;;;;;;;;;;4987474;28;86938;-46
2024/03/10 05:31:54;;;;;;;2.37;0.83;;;;;;;;;;4988256;28;87945;-45
2024/03/10 05:34:19;;;;;;;1.13;0.63;;;;;;;;;;4985928;28;86818;-47
2024/03/10 05:36:45;;;;;;;2.13;0.80;;;;;;;;;;4986881;28;86852;-46
2024/03/10 05:39:10;;;;;;;2.40;0.60;;;;;;;;;;4985982;28;87399;-48
2024/03/10 05:41:35;;;;;;;0.93;0.63;;;;;;;;;;4986362;28;86878;-44
2024/03/10 05:44:00;;;;;;;1.20;0.77;;;;;;;;;;4986588;28;87206;-45
2024/03/10 05:46:27;;;;;;;2.17;0.70;;;;;;;;;;4986511;28;86892;-46
2024/03/10 05:48:55;;;;;;;0.70;0.50;;;;;;;;;;4987265;28;86318;-45
2024/03/10 05:51:21;;;;;;;0.70;0.60;;;;;;;;;;4986388;28;86775;-45
2024/03/10 05:53:46;;;;;;;1.90;1.00;;;;;;;;;;4989528;28;87287;-46
2024/03/10 05:56:11;;;;;;;1.13;0.63;;;;;;;;;;4985468;28;88272;-45
2024/03/10 05:58:40;;;;;;;1.77;0.80;;;;;;;;;;4984616;28;90368;-46
2024/03/10 06:01:05;;;;;;;1.40;0.80;;;;;;;;;;4985597;28;86881;-46
2024/03/10 06:03:31;;;;;;;1.40;0.70;;;;;;;;;;4986557;28;87174;-45
2024/03/10 06:05:56;;;;;;;2.27;0.67;;;;;;;;;;4985787;28;86764;-45
2024/03/10 06:08:23;;;;;;;1.40;0.80;;;;;;;;;;4985025;28;87256;-45
2024/03/10 06:10:49;;;;;;;2.00;0.90;;;;;;;;;;4985010;28;86718;-46
2024/03/10 06:13:14;;;;;;;1.65;0.82;;;;;;;;;;4990537;28;86038;-44
2024/03/10 06:15:39;;;;;;;4.30;1.30;;;;;;;;;;4985233;28;86858;-44
2024/03/10 06:18:15;;;;;;;3.40;0.70;;;;;;;;;;4988894;28;86921;-45
2024/03/10 06:26:13;;;;;;;0.83;0.70;;;;;;;;;;4986289;28;87047;-45
2024/03/10 06:28:38;;;;;;;2.13;1.03;;;;;;;;;;4987262;28;86740;-45
2024/03/10 06:31:04;;;;;;;1.10;0.80;;;;;;;;;;4986789;28;87072;-43
2024/03/10 06:33:29;;;;;;;3.07;0.97;;;;;;;;;;4986686;28;87512;-43
2024/03/10 06:35:54;;;;;;;0.50;0.50;;;;;;;;;;4989730;28;88296;-43
2024/03/10 06:38:20;;;;;;;1.47;0.93;;;;;;;;;;4986667;28;86875;-42
2024/03/10 06:40:45;;;;;;;1.10;0.60;;;;;;;;;;4984509;28;87117;-43
2024/03/10 06:43:10;;;;;;;1.53;1.00;;;;;;;;;;4985452;28;87094;-43
2024/03/10 06:45:36;;;;;;;1.40;0.87;;;;;;;;;;4985617;28;88388;-43
2024/03/10 06:48:01;;;;;;;0.83;0.70;;;;;;;;;;4986111;28;86762;-43
2024/03/10 06:50:28;;;;;;;0.97;0.77;;;;;;;;;;4984554;28;88846;-44
2024/03/10 06:52:53;;;;;;;1.30;0.70;;;;;;;;;;4986931;28;87150;-45
2024/03/10 06:55:19;;;;;;;1.00;0.80;;;;;;;;;;4987243;28;86990;-44
2024/03/10 06:57:44;;;;;;;0.52;0.52;;;;;;;;;;4989156;28;88409;-43
2024/03/10 07:00:12;;;;;;;2.10;0.80;;;;;;;;;;4985481;28;86850;-43
2024/03/10 07:02:38;;;;;;;2.08;0.93;;;;;;;;;;4986781;28;86184;-42
2024/03/10 07:05:04;;;;;;;1.40;0.60;;;;;;;;;;4986537;28;86975;-43
2024/03/10 07:07:29;;;;;;;2.03;1.07;;;;;;;;;;4987116;28;86937;-43
2024/03/10 07:09:55;;;;;;;1.27;0.70;;;;;;;;;;4986024;28;87691;-43
2024/03/10 07:12:21;;;;;;;1.53;0.57;;;;;;;;;;4986899;28;87563;-43
2024/03/10 07:14:46;;;;;;;2.73;1.13;;;;;;;;;;4985686;28;86866;-43
2024/03/10 07:17:12;;;;;;;0.70;0.70;;;;;;;;;;4984216;28;90013;-43
2024/03/10 07:19:40;;;;;;;0.97;0.70;;;;;;;;;;4989362;28;87035;-43
2024/03/10 07:22:05;;;;;;;1.38;0.75;;;;;;;;;;4985795;28;87265;-43
2024/03/10 07:24:30;;;;;;;1.70;0.73;;;;;;;;;;4985676;28;86782;-43
2024/03/10 07:26:55;;;;;;;1.23;0.80;;;;;;;;;;4984918;28;86273;-44
2024/03/10 07:29:20;;;;;;;1.93;0.70;;;;;;;;;;4985654;28;87379;-44
2024/03/10 07:31:46;;;;;;;1.90;0.73;;;;;;;;;;4985815;28;86658;-43
2024/03/10 07:34:13;;;;;;;2.67;0.77;;;;;;;;;;4986171;28;87925;-43
2024/03/10 07:36:38;;;;;;;0.90;0.70;;;;;;;;;;4984887;28;88508;-43
2024/03/10 07:39:06;;;;;;;2.93;0.67;;;;;;;;;;4986617;28;87729;-46
2024/03/10 07:41:32;;;;;;;0.90;0.63;;;;;;;;;;4989728;28;87238;-46
2024/03/10 07:43:58;;;;;;;1.63;0.82;;;;;;;;;;4986704;28;86883;-45
2024/03/10 07:46:23;;;;;;;1.52;0.75;;;;;;;;;;4985596;28;87009;-44
2024/03/10 07:48:49;;;;;;;1.20;0.70;;;;;;;;;;4985649;28;88753;-43
2024/03/10 07:51:14;;;;;;;2.65;0.80;;;;;;;;;;4986887;28;86705;-44
2024/03/10 07:53:40;;;;;;;2.90;1.00;;;;;;;;;;4986892;28;86859;-46
2024/03/10 07:56:05;;;;;;;3.30;1.00;;;;;;;;;;4987953;28;87411;-44
2024/03/10 07:58:30;;;;;;;4.57;1.20;;;;;;;;;;4986908;28;88413;-43
2024/03/10 08:00:56;;;;;;;0.90;0.70;;;;;;;;;;4987163;28;87002;-44
2024/03/10 08:03:21;;;;;;;2.03;0.87;;;;;;;;;;4990637;28;86870;-43
2024/03/10 08:05:47;;;;;;;4.70;1.20;;;;;;;;;;4987754;28;86842;-43
2024/03/10 08:08:12;;;;;;;2.13;1.20;;;;;;;;;;4988837;28;87167;-43
2024/03/10 08:10:37;;;;;;;2.33;0.90;;;;;;;;;;4988280;28;86809;-44
2024/03/10 08:13:02;;;;;;;1.63;0.93;;;;;;;;;;4988510;28;87467;-44
2024/03/10 08:15:28;;;;;;;1.93;1.17;;;;;;;;;;4988977;28;86190;-48
2024/03/10 08:17:53;;;;;;;4.97;1.10;;;;;;;;;;4986995;28;86798;-43
2024/03/10 08:20:19;;;;;;;3.83;1.37;;;;;;;;;;4986415;28;86925;-44
2024/03/10 08:22:45;;;;;;;3.97;1.30;;;;;;;;;;4987844;28;87827;-43
2024/03/10 08:25:10;;;;;;;3.28;1.08;;;;;;;;;;4986482;28;87240;-44
2024/03/10 08:27:36;;;;;;;1.70;1.27;;;;;;;;;;4985987;28;86777;-43
2024/03/10 08:30:01;;;;;;;2.80;1.20;;;;;;;;;;4985512;28;87330;-44
2024/03/10 08:32:27;;;;;;;13.27;1.27;;;;;;;;;;4986888;28;86952;-46
2024/03/10 08:34:53;;;;;;;4.53;1.27;;;;;;;;;;4987269;28;86998;-45
2024/03/10 08:37:18;;;;;;;14.80;1.70;;;;;;;;;;4987047;28;86830;-44
2024/03/10 08:39:47;;;;;;;2.27;1.00;;;;;;;;;;4987072;28;86095;-44
2024/03/10 08:42:15;;;;;;;8.82;1.60;;;;;;;;;;4986027;28;86970;-43
2024/03/10 08:44:40;;;;;;;3.85;1.38;;;;;;;;;;4989960;28;87169;-44
2024/03/10 08:47:05;;;;;;;1.67;1.27;;;;;;;;;;4983738;28;87864;-43
2024/03/10 08:49:31;;;;;;;8.00;1.70;;;;;;;;;;4986089;28;88546;-46
2024/03/10 08:51:56;;;;;;;2.78;1.30;;;;;;;;;;4985571;28;86858;-44
2024/03/10 08:54:22;;;;;;;2.67;1.30;;;;;;;;;;4987161;28;86744;-44
2024/03/10 08:56:48;;;;;;;1.45;1.25;;;;;;;;;;4986918;28;86895;-44
2024/03/10 08:59:15;;;;;;;2.33;0.95;;;;;;;;;;4986899;28;86794;-45
2024/03/10 09:01:41;;;;;;;3.33;1.43;;;;;;;;;;4985835;28;87291;-43
2024/03/10 09:04:07;;;;;;;2.77;1.07;;;;;;;;;;4983668;28;87353;-47
2024/03/10 09:06:32;;;;;;;2.53;1.20;;;;;;;;;;4986008;28;87049;-47
2024/03/10 09:08:58;;;;;;;4.50;1.40;;;;;;;;;;4983242;28;87076;-46
2024/03/10 09:11:24;;;;;;;2.85;1.52;;;;;;;;;;4981871;28;88576;-46
2024/03/10 09:13:49;;;;;;;3.70;1.20;;;;;;;;;;4981741;28;86986;-46
2024/03/10 09:16:15;;;;;;;3.80;1.50;;;;;;;;;;4981704;28;87310;-49
2024/03/10 09:18:40;;;;;;;4.03;1.20;;;;;;;;;;4983067;28;87083;-50
2024/03/10 09:21:07;;;;;;;2.27;1.10;;;;;;;;;;4984479;28;87168;-46
2024/03/10 09:23:33;;;;;;;5.23;1.90;;;;;;;;;;4983122;28;87541;-46
2024/03/10 09:26:00;;;;;;;2.70;1.50;;;;;;;;;;4983506;28;86984;-47
2024/03/10 09:28:25;;;;;;;2.00;1.35;;;;;;;;;;4989919;28;87188;-47
2024/03/10 09:30:51;;;;;;;3.93;1.07;;;;;;;;;;4986488;28;86998;-47
2024/03/10 09:33:17;;;;;;;2.27;1.23;;;;;;;;;;4986404;28;87006;-46
2024/03/10 09:35:43;;;;;;;2.80;1.50;;;;;;;;;;4984606;28;88444;-46
2024/03/10 09:38:08;;;;;;;3.10;1.50;;;;;;;;;;4986054;28;86992;-48
2024/03/10 09:40:33;;;;;;;5.20;1.27;;;;;;;;;;4984584;28;89760;-47
2024/03/10 09:42:59;;;;;;;2.50;1.27;;;;;;;;;;4986422;28;87194;-46
2024/03/10 09:45:26;;;;;;;7.77;1.43;;;;;;;;;;4987943;28;86834;-51
2024/03/10 09:47:52;;;;;;;2.20;1.30;;;;;;;;;;4989295;28;87286;-53
2024/03/10 09:50:23;;;;;;;1.50;1.10;;;;;;;;;;4993137;28;86849;-53
2024/03/10 09:52:51;;;;;;;1.47;1.10;;;;;;;;;;4988293;28;109687;-50
2024/03/10 09:55:20;;;;;;;1.58;1.27;;;;;;;;;;4989927;28;87509;-52
2024/03/10 09:57:46;;;;;;;3.80;1.50;;;;;;;;;;4989868;28;86929;-50
2024/03/10 10:00:13;;;;;;;4.22;1.17;;;;;;;;;;4989582;28;87725;-50
2024/03/10 10:02:42;;;;;;;2.53;1.20;;;;;;;;;;4988635;28;87372;-52
2024/03/10 10:05:14;;;;;;;3.78;1.42;;;;;;;;;;4987597;28;86750;-52
2024/03/10 10:07:39;;;;;;;2.30;1.70;;;;;;;;;;4986403;28;90217;-53
2024/03/10 10:10:06;;;;;;;2.87;1.50;;;;;;;;;;4986492;28;87075;-53
2024/03/10 10:12:32;;;;;;;2.38;1.40;;;;;;;;;;4991248;28;86953;-52
2024/03/10 10:14:57;;;;;;;3.58;1.65;;;;;;;;;;4986843;28;87545;-51
2024/03/10 10:17:25;;;;;;;3.13;1.53;;;;;;;;;;4987804;28;86478;-52
2024/03/10 10:19:50;;;;;;;2.40;1.58;;;;;;;;;;4986558;28;87298;-49
2024/03/10 10:22:17;;;;;;;3.10;1.73;;;;;;;;;;4985914;28;87351;-51
2024/03/10 10:24:42;;;;;;;5.13;1.80;;;;;;;;;;4985752;28;87776;-48
2024/03/10 10:27:09;;;;;;;3.83;2.00;;;;;;;;;;4985895;28;88461;-49
2024/03/10 10:29:53;;;;;;;2.80;1.50;;;;;;;;;;4986771;28;87570;-48
2024/03/10 10:32:22;;;;;;;2.85;1.85;;;;;;;;;;4989907;28;87144;-49
2024/03/10 10:34:48;;;;;;;3.63;1.52;;;;;;;;;;4986240;28;87469;-51
2024/03/10 10:37:13;;;;;;;3.50;1.83;;;;;;;;;;4985698;28;86776;-50
2024/03/10 10:39:39;;;;;;;5.07;2.50;;;;;;;;;;4984162;28;87413;-49
2024/03/10 10:42:07;;;;;;;3.15;1.67;;;;;;;;;;4985710;28;86287;-49
2024/03/10 10:44:33;;;;;;;3.47;1.83;;;;;;;;;;4984303;28;86980;-48
2024/03/10 10:46:59;;;;;;;5.07;1.70;;;;;;;;;;4984742;28;87013;-48
2024/03/10 10:49:25;;;;;;;3.00;1.98;;;;;;;;;;4983700;28;88389;-49
2024/03/10 10:51:50;;;;;;;5.85;1.80;;;;;;;;;;4984024;28;86841;-49
2024/03/10 10:54:17;;;;;;;2.08;1.42;;;;;;;;;;4986160;28;87156;-48
2024/03/10 10:56:42;;;;;;;3.33;1.92;;;;;;;;;;4983880;28;86865;-48
2024/03/10 10:59:11;;;;;;;3.50;1.60;;;;;;;;;;4982560;28;88651;-48
2024/03/10 11:01:38;;;;;;;2.90;1.70;;;;;;;;;;4983533;28;87712;-51
2024/03/10 11:04:05;;;;;;;2.67;1.60;;;;;;;;;;4984806;28;86971;-48
2024/03/10 11:06:33;;;;;;;2.95;1.67;;;;;;;;;;4985885;28;86313;-50
2024/03/10 11:08:59;;;;;;;5.15;1.70;;;;;;;;;;4985152;28;87746;-47
2024/03/10 11:11:40;;;;;;;4.17;2.20;;;;;;;;;;4985723;28;87048;-48
2024/03/10 11:14:06;;;;;;;2.42;1.27;;;;;;;;;;4985206;28;87875;-48
2024/03/10 11:16:34;;;;;;;4.97;1.87;;;;;;;;;;4988187;28;87425;-48
2024/03/10 11:19:16;;;;;;;5.53;1.43;;;;;;;;;;4984202;28;87263;-49
2024/03/10 11:21:44;;;;;;;3.00;1.77;;;;;;;;;;4983291;28;87712;-49
2024/03/10 11:24:20;;;;;;;3.00;1.60;;;;;;;;;;4984139;28;86838;-48
2024/03/10 11:26:46;;;;;;;2.08;1.52;;;;;;;;;;4983842;28;87323;-55
2024/03/10 11:29:27;;;;;;;2.88;1.30;;;;;;;;;;4984384;28;87507;-50
2024/03/10 11:31:54;;;;;;;2.75;1.55;;;;;;;;;;4983657;28;86254;-49
2024/03/10 11:34:22;;;;;;;2.25;1.23;;;;;;;;;;4983831;28;87758;-49
2024/03/10 11:36:47;;;;;;;4.63;2.45;;;;;;;;;;4983774;28;86887;-48
2024/03/10 11:39:21;;;;;;;2.23;1.53;;;;;;;;;;4985655;28;87801;-48
2024/03/10 11:41:49;;;;;;;4.03;1.70;;;;;;;;;;4982645;28;86903;-51
2024/03/10 11:44:18;;;;;;;6.57;2.28;;;;;;;;;;4982532;28;86975;-48
2024/03/10 11:46:44;;;;;;;2.40;1.40;;;;;;;;;;4982837;28;88331;-49
2024/03/10 11:49:12;;;;;;;5.63;2.10;;;;;;;;;;4982323;28;87512;-50
2024/03/10 11:51:38;;;;;;;4.00;1.80;;;;;;;;;;4984162;28;86971;-48
2024/03/10 11:54:03;;;;;;;3.58;1.52;;;;;;;;;;4984118;28;87241;-52
2024/03/10 11:56:29;;;;;;;4.70;1.30;;;;;;;;;;4984882;28;86819;-48
2024/03/10 11:58:57;;;;;;;1.77;1.17;;;;;;;;;;4981379;28;87039;-49
2024/03/10 12:01:23;;;;;;;5.32;1.75;;;;;;;;;;4984990;28;86909;-50
2024/03/10 12:03:49;;;;;;;5.80;1.60;;;;;;;;;;4982384;28;87876;-48
2024/03/10 12:06:15;;;;;;;3.60;1.88;;;;;;;;;;4983352;28;88380;-50
2024/03/10 12:08:42;;;;;;;5.17;1.33;;;;;;;;;;4983137;28;87315;-47
2024/03/10 12:11:07;;;;;;;2.08;1.40;;;;;;;;;;4982259;28;86839;-49
2024/03/10 12:13:33;;;;;;;3.75;1.27;;;;;;;;;;4982581;28;89148;-47
2024/03/10 12:15:59;;;;;;;5.20;1.50;;;;;;;;;;4984389;28;87683;-48
2024/03/10 12:18:24;;;;;;;3.00;1.48;;;;;;;;;;4984055;28;86944;-48
2024/03/10 12:20:50;;;;;;;3.17;1.67;;;;;;;;;;4988158;28;87460;-48
2024/03/10 12:23:16;;;;;;;4.30;1.73;;;;;;;;;;4985815;28;86292;-49
2024/03/10 12:25:42;;;;;;;3.13;1.57;;;;;;;;;;4984025;28;88525;-49
2024/03/10 12:28:10;;;;;;;4.82;1.05;;;;;;;;;;4984425;28;88157;-48
2024/03/10 12:30:36;;;;;;;2.00;1.20;;;;;;;;;;4984478;28;86695;-47
2024/03/10 12:33:04;;;;;;;3.47;1.40;;;;;;;;;;4984593;28;87340;-48
2024/03/10 12:35:29;;;;;;;3.70;1.48;;;;;;;;;;4985355;28;87700;-47
2024/03/10 12:37:55;;;;;;;5.37;1.60;;;;;;;;;;4986426;28;86876;-47
2024/03/10 12:40:20;;;;;;;2.53;1.30;;;;;;;;;;4985281;28;87270;-48
2024/03/10 12:42:50;;;;;;;4.20;1.83;;;;;;;;;;4989111;28;86851;-47
2024/03/10 12:45:16;;;;;;;3.75;1.33;;;;;;;;;;4985527;28;87537;-48
2024/03/10 12:47:45;;;;;;;2.58;1.30;;;;;;;;;;4984380;28;87740;-48
2024/03/10 12:50:10;;;;;;;1.98;1.42;;;;;;;;;;4984666;28;87200;-49
2024/03/10 12:52:35;;;;;;;1.87;1.33;;;;;;;;;;4984563;28;87887;-52
2024/03/10 12:55:00;;;;;;;2.47;1.37;;;;;;;;;;4985510;28;86809;-50
2024/03/10 12:57:26;;;;;;;3.20;1.80;;;;;;;;;;4983029;28;86989;-50
2024/03/10 12:59:51;;;;;;;3.00;1.17;;;;;;;;;;4984377;28;86892;-49
2024/03/10 13:02:17;;;;;;;3.63;1.80;;;;;;;;;;4985909;28;87913;-49
2024/03/10 13:04:42;;;;;;;2.17;1.50;;;;;;;;;;4989499;28;86896;-49
2024/03/10 13:07:07;;;;;;;2.83;1.50;;;;;;;;;;4986489;28;90594;-49
2024/03/10 13:09:33;;;;;;;5.33;1.47;;;;;;;;;;4987824;28;86171;-49
2024/03/10 13:11:58;;;;;;;5.33;1.20;;;;;;;;;;4986669;28;87879;-50
2024/03/10 13:14:23;;;;;;;4.30;1.23;;;;;;;;;;4987157;28;86831;-52
2024/03/10 13:16:49;;;;;;;5.05;2.03;;;;;;;;;;4987407;28;87564;-50
2024/03/10 13:19:14;;;;;;;4.33;1.70;;;;;;;;;;4986694;28;87072;-51
2024/03/10 13:21:39;;;;;;;3.10;1.27;;;;;;;;;;4987624;28;86834;-50
2024/03/10 13:24:05;;;;;;;2.63;1.45;;;;;;;;;;4988730;28;86958;-50
2024/03/10 13:26:30;;;;;;;3.50;1.83;;;;;;;;;;4992847;28;86971;-51
2024/03/10 13:28:56;;;;;;;2.23;1.13;;;;;;;;;;4990151;28;86699;-52
2024/03/10 13:31:22;;;;;;;2.15;1.38;;;;;;;;;;4989492;28;86801;-48
2024/03/10 13:33:49;;;;;;;3.15;1.45;;;;;;;;;;4988519;28;86020;-46
2024/03/10 13:36:15;;;;;;;5.20;1.45;;;;;;;;;;4988267;28;86801;-46
2024/03/10 13:38:40;;;;;;;2.45;1.25;;;;;;;;;;4987164;28;86877;-46
2024/03/10 13:41:09;;;;;;;2.70;1.13;;;;;;;;;;4985674;28;87772;-49
2024/03/10 13:43:34;;;;;;;3.40;1.42;;;;;;;;;;4986683;28;86770;-46
2024/03/10 13:45:59;;;;;;;2.27;1.33;;;;;;;;;;4986641;28;87494;-45
2024/03/10 13:48:24;;;;;;;2.97;1.70;;;;;;;;;;4988325;28;90206;-48
2024/03/10 13:50:50;;;;;;;4.40;1.50;;;;;;;;;;4986622;28;87239;-46
2024/03/10 13:53:18;;;;;;;3.47;0.90;;;;;;;;;;4986856;28;86634;-46
2024/03/10 13:55:44;;;;;;;2.88;1.27;;;;;;;;;;4984968;28;87030;-47
2024/03/10 13:58:12;;;;;;;6.82;1.65;;;;;;;;;;4985851;28;87180;-46
2024/03/10 14:00:38;;;;;;;3.10;1.50;;;;;;;;;;4985064;28;87591;-49
2024/03/10 14:03:05;;;;;;;2.92;1.45;;;;;;;;;;4984977;28;86812;-46
2024/03/10 14:05:31;;;;;;;1.97;1.30;;;;;;;;;;4984077;28;87810;-46
2024/03/10 14:07:56;;;;;;;2.22;1.42;;;;;;;;;;4984284;28;87239;-47
2024/03/10 14:10:22;;;;;;;0.90;0.77;;;;;;;;;;4987768;28;86940;-46
2024/03/10 14:12:47;;;;;;;1.77;1.10;;;;;;;;;;4983608;28;87431;-47
2024/03/10 14:15:14;;;;;;;1.93;1.13;;;;;;;;;;4984680;28;87037;-47
2024/03/10 14:17:40;;;;;;;2.30;1.13;;;;;;;;;;4983804;28;90008;-47
2024/03/10 14:20:13;;;;;;;1.93;1.20;;;;;;;;;;4984640;28;86850;-46
2024/03/10 14:22:39;;;;;;;3.20;1.00;;;;;;;;;;4984971;28;86365;-47
2024/03/10 14:25:06;;;;;;;1.85;1.40;;;;;;;;;;4985931;28;86821;-47
2024/03/10 14:27:32;;;;;;;3.05;1.70;;;;;;;;;;4984265;28;87534;-46
2024/03/10 14:29:57;;;;;;;1.80;1.00;;;;;;;;;;4986902;28;87636;-48
2024/03/10 14:32:22;;;;;;;1.80;0.97;;;;;;;;;;4983513;28;89279;-49
2024/03/10 14:34:48;;;;;;;1.63;0.97;;;;;;;;;;4985196;28;86796;-45
2024/03/10 14:37:13;;;;;;;3.90;1.40;;;;;;;;;;4984178;28;87333;-45
2024/03/10 14:39:39;;;;;;;2.93;1.10;;;;;;;;;;4984219;28;87573;-50
2024/03/10 14:42:04;;;;;;;4.40;1.25;;;;;;;;;;4983514;28;87003;-47
2024/03/10 14:44:29;;;;;;;5.17;1.77;;;;;;;;;;4985069;28;86925;-47
2024/03/10 14:46:56;;;;;;;1.90;0.80;;;;;;;;;;4985368;28;86800;-45
2024/03/10 14:49:21;;;;;;;3.42;1.40;;;;;;;;;;4985017;28;86788;-47
2024/03/10 14:51:49;;;;;;;2.53;1.20;;;;;;;;;;4988308;28;87000;-46
2024/03/10 14:54:14;;;;;;;3.38;1.13;;;;;;;;;;4984890;28;87931;-49
2024/03/10 14:56:40;;;;;;;2.20;1.13;;;;;;;;;;4985134;28;88047;-45
2024/03/10 14:59:06;;;;;;;2.00;0.97;;;;;;;;;;4984905;28;86797;-46